Time;durP1;ratioP1;P1;durP2;ratioP2;P2;SDS_P1;SDS_P2;PMS_P1;PMS_P2;Temp;Humidity;BMP_temperature;BMP_pressure;BME280_temperature;BME280_humidity;BME280_pressure;Samples;Min_cycle;Max_cycle;Signal;HPM_P1;HPM_P2
2024/01/27 00:01:45;;;;;;;6.00;2.85;;;;;;;4.86;53.58;95054.63;4191261;28;20079;-67
2024/01/27 00:03:47;;;;;;;7.28;3.15;;;;;;;4.82;53.27;95045.41;4184286;28;20122;-66
2024/01/27 00:05:49;;;;;;;8.20;3.20;;;;;;;4.83;53.83;95042.69;4191191;28;20123;-67
2024/01/27 00:07:51;;;;;;;9.85;3.10;;;;;;;4.90;53.09;95036.13;4189255;28;20102;-67
2024/01/27 00:09:53;;;;;;;10.70;3.45;;;;;;;4.80;53.25;95042.94;4195981;28;20045;-68
2024/01/27 00:11:57;;;;;;;9.15;3.25;;;;;;;4.88;53.58;95047.53;4195127;28;20052;-68
2024/01/27 00:13:59;;;;;;;7.57;2.70;;;;;;;4.92;52.63;95047.19;4195725;28;20163;-68
2024/01/27 00:16:01;;;;;;;7.85;2.97;;;;;;;4.99;53.30;95029.41;4192971;28;20184;-66
2024/01/27 00:18:03;;;;;;;8.88;2.95;;;;;;;4.96;52.87;95039.19;4194593;28;20056;-66
2024/01/27 00:20:08;;;;;;;7.20;3.10;;;;;;;5.00;52.41;95025.84;4185859;28;20114;-66
2024/01/27 00:22:10;;;;;;;6.68;2.90;;;;;;;5.05;52.79;95026.31;4195671;28;20052;-65
2024/01/27 00:24:13;;;;;;;8.90;2.95;;;;;;;5.02;52.71;95033.53;4195893;28;20538;-68
2024/01/27 00:26:16;;;;;;;7.82;3.03;;;;;;;4.96;53.06;95023.59;4194475;28;20083;-67
2024/01/27 00:28:19;;;;;;;5.80;2.72;;;;;;;4.87;52.49;95020.75;4190030;28;20047;-71
2024/01/27 00:30:21;;;;;;;7.40;2.97;;;;;;;4.95;52.35;95032.31;4183589;28;20129;-67
2024/01/27 00:32:23;;;;;;;8.02;3.00;;;;;;;4.91;53.18;95022.19;4180013;28;20064;-67
2024/01/27 00:34:25;;;;;;;8.88;2.95;;;;;;;4.90;53.08;95030.09;4186171;28;20052;-66
2024/01/27 00:36:27;;;;;;;7.90;3.15;;;;;;;4.86;53.22;95026.06;4193240;28;20062;-66
2024/01/27 00:38:29;;;;;;;9.55;3.42;;;;;;;4.88;53.37;95025.03;4192878;28;20037;-65
2024/01/27 00:40:32;;;;;;;10.65;3.75;;;;;;;5.01;52.95;95022.31;4192936;28;20047;-67
2024/01/27 00:42:34;;;;;;;7.68;3.25;;;;;;;5.09;52.74;95027.72;4194910;28;20132;-67
2024/01/27 00:44:36;;;;;;;8.70;3.13;;;;;;;5.01;52.89;95030.13;4187851;28;20505;-67
2024/01/27 00:46:38;;;;;;;7.20;3.20;;;;;;;5.03;52.83;95029.97;4173864;28;20060;-66
2024/01/27 00:48:41;;;;;;;14.35;3.78;;;;;;;4.92;53.42;95031.59;4189005;28;20097;-66
2024/01/27 00:50:44;;;;;;;11.30;3.30;;;;;;;4.97;53.06;95040.81;4195390;28;20070;-67
2024/01/27 00:52:45;;;;;;;7.35;2.97;;;;;;;4.96;53.39;95021.81;4187968;28;20057;-66
2024/01/27 00:54:47;;;;;;;9.43;3.22;;;;;;;4.95;53.14;95030.56;4187322;28;20288;-66
2024/01/27 00:56:51;;;;;;;8.48;3.50;;;;;;;4.99;53.05;95038.94;4176323;28;20049;-67
2024/01/27 00:58:52;;;;;;;8.15;3.35;;;;;;;4.95;53.48;95027.13;4195193;28;20524;-68
2024/01/27 01:00:55;;;;;;;9.27;3.17;;;;;;;5.00;53.94;95019.84;4191459;28;20054;-66
2024/01/27 01:02:57;;;;;;;10.13;3.00;;;;;;;4.96;53.94;95021.81;4192965;28;20052;-67
2024/01/27 01:05:00;;;;;;;7.35;2.67;;;;;;;4.95;54.37;95030.56;4188521;28;20047;-67
2024/01/27 01:07:02;;;;;;;10.73;3.50;;;;;;;4.98;53.89;95026.91;4192137;28;20133;-67
2024/01/27 01:09:04;;;;;;;8.57;3.28;;;;;;;4.93;53.91;95028.09;4189654;28;20055;-67
2024/01/27 01:11:06;;;;;;;6.78;3.47;;;;;;;5.01;53.94;95021.47;4195007;28;20099;-67
2024/01/27 01:13:09;;;;;;;10.52;3.50;;;;;;;5.07;53.97;95023.59;4194808;28;20048;-67
2024/01/27 01:15:11;;;;;;;8.20;3.45;;;;;;;5.05;54.06;95028.09;4191559;28;20498;-67
2024/01/27 01:17:13;;;;;;;8.25;3.20;;;;;;;4.93;54.51;95020.31;4193493;28;20075;-66
2024/01/27 01:19:15;;;;;;;10.13;3.42;;;;;;;4.85;54.79;95037.41;4191909;28;20060;-67
2024/01/27 01:21:17;;;;;;;8.98;3.70;;;;;;;4.86;54.31;95036.44;4185188;28;20053;-67
2024/01/27 01:23:19;;;;;;;10.93;3.13;;;;;;;4.81;54.63;95031.59;4183805;28;20159;-66
2024/01/27 01:25:21;;;;;;;8.73;3.00;;;;;;;4.82;54.84;95028.09;4193765;28;20485;-66
2024/01/27 01:27:25;;;;;;;10.40;3.33;;;;;;;4.75;54.93;95028.66;4190595;28;20052;-65
2024/01/27 01:29:28;;;;;;;11.23;3.60;;;;;;;4.31;55.66;95018.06;4194580;28;20312;-68
2024/01/27 01:31:31;;;;;;;7.47;3.35;;;;;;;4.41;55.70;95020.78;4180616;28;20180;-66
2024/01/27 01:33:33;;;;;;;7.53;3.10;;;;;;;4.47;55.37;95010.81;4183487;28;20128;-66
2024/01/27 01:35:35;;;;;;;7.93;3.05;;;;;;;4.39;55.91;95013.13;4194223;28;20048;-67
2024/01/27 01:37:37;;;;;;;10.70;3.25;;;;;;;4.17;55.76;95010.44;4192580;28;20060;-65
2024/01/27 01:39:39;;;;;;;9.38;3.67;;;;;;;4.08;56.20;95010.19;4191838;28;20044;-68
2024/01/27 01:41:41;;;;;;;9.73;3.80;;;;;;;3.92;57.13;95006.25;4189176;28;20049;-66
2024/01/27 01:43:44;;;;;;;8.15;3.50;;;;;;;3.87;57.17;95004.81;4186841;28;20049;-65
2024/01/27 01:45:46;;;;;;;7.28;3.75;;;;;;;3.83;57.32;95008.56;4191462;28;20046;-66
2024/01/27 01:47:48;;;;;;;6.55;3.58;;;;;;;3.77;56.89;94990.03;4193859;28;20045;-67
2024/01/27 01:49:53;;;;;;;10.40;4.18;;;;;;;3.79;57.27;94988.16;4194367;28;20553;-66
2024/01/27 01:51:55;;;;;;;8.77;4.15;;;;;;;3.84;56.91;94988.66;4192060;28;20052;-67
2024/01/27 01:53:58;;;;;;;9.07;3.70;;;;;;;3.99;56.12;95003.06;4185708;28;20040;-67
2024/01/27 01:56:01;;;;;;;;;;;;;;;4.12;55.67;94997.81;4188045;28;20414;-66
2024/01/27 01:58:03;;;;;;;8.85;4.22;;;;;;;4.03;55.96;94988.97;4182549;28;19932;-66
2024/01/27 02:00:06;;;;;;;7.93;3.85;;;;;;;4.08;55.31;94993.81;4186248;28;20063;-66
2024/01/27 02:02:08;;;;;;;8.77;3.67;;;;;;;4.26;54.45;94986.44;4180877;28;20049;-67
2024/01/27 02:04:10;;;;;;;13.75;4.40;;;;;;;4.17;55.13;94990.53;4179498;28;20419;-66
2024/01/27 02:06:12;;;;;;;8.68;3.40;;;;;;;4.28;52.85;94997.50;4183518;28;20045;-67
2024/01/27 02:08:14;;;;;;;7.22;3.08;;;;;;;4.48;51.56;94983.09;4186181;28;20053;-68
2024/01/27 02:10:18;;;;;;;8.68;3.13;;;;;;;4.69;50.35;94976.28;4177794;28;20504;-65
2024/01/27 02:12:20;;;;;;;;;;;;;;;4.90;50.66;94959.97;4190762;28;20098;-66
2024/01/27 02:14:25;;;;;;;5.38;2.45;;;;;;;5.00;49.22;94950.56;4193855;28;19920;-66
2024/01/27 02:16:27;;;;;;;5.25;2.30;;;;;;;5.10;49.02;94955.88;4187202;28;20136;-66
2024/01/27 02:18:29;;;;;;;5.78;2.25;;;;;;;5.19;47.98;94936.97;4191247;28;20388;-67
2024/01/27 02:20:31;;;;;;;5.60;2.28;;;;;;;5.24;48.00;94950.41;4187464;28;20052;-65
2024/01/27 02:22:34;;;;;;;5.72;2.40;;;;;;;5.21;47.49;94950.66;4180546;28;20048;-66
2024/01/27 02:24:35;;;;;;;5.95;2.20;;;;;;;5.27;46.97;94947.59;4194191;28;20406;-66
2024/01/27 02:26:37;;;;;;;5.97;2.28;;;;;;;5.21;46.90;94961.03;4191741;28;20048;-66
2024/01/27 02:28:39;;;;;;;6.35;2.15;;;;;;;5.39;46.78;94947.56;4186433;28;20048;-65
2024/01/27 02:30:43;;;;;;;4.93;2.45;;;;;;;5.53;45.79;94948.13;4181554;28;20052;-67
2024/01/27 02:32:44;;;;;;;7.20;2.63;;;;;;;5.66;44.90;94945.38;4191221;28;20076;-70
2024/01/27 02:34:46;;;;;;;7.93;1.98;;;;;;;5.81;44.93;94940.72;4185775;28;20331;-68
2024/01/27 02:36:48;;;;;;;7.13;1.85;;;;;;;5.84;44.00;94944.81;4177669;28;20044;-66
2024/01/27 02:38:50;;;;;;;6.38;2.30;;;;;;;5.79;44.12;94946.97;4177763;28;20055;-66
2024/01/27 02:40:52;;;;;;;5.95;2.40;;;;;;;5.85;44.42;94938.66;4191629;28;20411;-66
2024/01/27 02:42:54;;;;;;;6.22;2.28;;;;;;;5.85;44.42;94949.91;4196390;28;20050;-67
2024/01/27 02:44:56;;;;;;;5.22;2.00;;;;;;;5.80;44.53;94951.22;4181989;28;20049;-66
2024/01/27 02:46:58;;;;;;;4.53;2.00;;;;;;;5.92;44.12;94942.44;4187211;28;20052;-66
2024/01/27 02:48:59;;;;;;;4.60;1.98;;;;;;;5.91;44.28;94932.97;4191481;28;20048;-66
2024/01/27 02:51:04;;;;;;;6.05;2.10;;;;;;;5.86;43.63;94941.16;4181115;28;20051;-67
2024/01/27 02:53:06;;;;;;;4.47;2.15;;;;;;;5.89;43.86;94940.91;4189326;28;20052;-66
2024/01/27 02:55:10;;;;;;;6.80;2.13;;;;;;;5.90;43.70;94939.94;4184144;28;20060;-66
2024/01/27 02:57:12;;;;;;;6.70;2.15;;;;;;;5.90;43.71;94942.56;4184710;28;20056;-66
2024/01/27 02:59:14;;;;;;;5.97;2.22;;;;;;;5.89;44.41;94942.66;4193040;28;20091;-66
2024/01/27 03:01:18;;;;;;;6.32;2.08;;;;;;;5.87;44.81;94945.41;4191788;28;20056;-67
2024/01/27 03:03:20;;;;;;;5.55;2.33;;;;;;;6.03;44.86;94949.41;4180875;28;20063;-66
2024/01/27 03:05:22;;;;;;;4.30;2.00;;;;;;;6.02;45.40;94952.94;4185641;28;20531;-67
2024/01/27 03:07:24;;;;;;;7.57;2.47;;;;;;;6.05;45.41;94960.50;4185620;28;20131;-66
2024/01/27 03:09:25;;;;;;;7.88;2.47;;;;;;;5.98;46.72;94960.19;4189209;28;20048;-67
2024/01/27 03:11:29;;;;;;;5.80;2.35;;;;;;;5.91;47.18;94970.19;4179619;28;20053;-66
2024/01/27 03:13:31;;;;;;;4.75;2.03;;;;;;;5.94;47.52;94966.53;4178436;28;20049;-66
2024/01/27 03:15:33;;;;;;;8.32;2.55;;;;;;;5.71;48.03;94964.00;4192498;28;20068;-66
2024/01/27 03:17:35;;;;;;;7.50;2.40;;;;;;;5.72;48.56;94970.88;4192908;28;20091;-65
2024/01/27 03:19:37;;;;;;;6.95;3.00;;;;;;;5.72;49.25;94967.41;4193229;28;20121;-65
2024/01/27 03:21:39;;;;;;;7.05;2.30;;;;;;;5.59;49.90;94969.34;4171625;28;20041;-66
2024/01/27 03:23:41;;;;;;;6.20;2.38;;;;;;;5.57;51.75;94968.66;4183695;28;20059;-66
2024/01/27 03:25:43;;;;;;;5.82;2.40;;;;;;;5.51;52.11;94973.41;4182795;28;20049;-65
2024/01/27 03:27:45;;;;;;;5.97;2.15;;;;;;;5.56;52.91;94972.22;4190054;28;20045;-64
2024/01/27 03:29:47;;;;;;;7.22;2.40;;;;;;;5.50;54.18;94960.50;4190098;28;20076;-68
2024/01/27 03:31:49;;;;;;;5.72;2.15;;;;;;;5.36;56.40;94968.59;4185662;28;20049;-64
2024/01/27 03:33:51;;;;;;;7.07;2.00;;;;;;;5.46;56.70;94972.09;4189467;28;20140;-66
2024/01/27 03:35:55;;;;;;;4.35;2.13;;;;;;;5.26;57.05;94964.09;4189840;28;20036;-66
2024/01/27 03:37:57;;;;;;;5.00;2.20;;;;;;;5.41;56.60;94956.06;4181809;28;20056;-66
2024/01/27 03:40:04;;;;;;;5.65;2.05;;;;;;;5.40;56.55;94954.38;4183900;28;20219;-66
2024/01/27 03:42:06;;;;;;;6.03;2.17;;;;;;;5.42;57.24;94952.50;4187756;28;20163;-67
2024/01/27 03:44:07;;;;;;;5.47;2.42;;;;;;;5.41;57.04;94949.09;4191321;28;20049;-68
2024/01/27 03:46:09;;;;;;;4.45;1.77;;;;;;;5.39;56.83;94950.16;4189688;28;20074;-67
2024/01/27 03:48:12;;;;;;;6.45;2.55;;;;;;;5.41;57.06;94946.47;4187736;28;20056;-65
2024/01/27 03:50:14;;;;;;;5.47;2.20;;;;;;;5.39;57.52;94939.75;4191232;28;20060;-66
2024/01/27 03:52:16;;;;;;;5.28;2.05;;;;;;;5.37;57.89;94946.84;4192434;28;20059;-65
2024/01/27 03:54:19;;;;;;;5.28;2.30;;;;;;;5.15;58.42;94960.69;4187215;28;20136;-65
2024/01/27 03:56:22;;;;;;;6.78;2.80;;;;;;;5.15;58.78;94945.94;4188596;28;20118;-66
2024/01/27 03:58:25;;;;;;;10.18;2.78;;;;;;;5.02;58.29;94940.06;4188306;28;20084;-66
2024/01/27 04:00:29;;;;;;;7.10;2.58;;;;;;;5.02;59.08;94940.88;4187330;28;20155;-66
2024/01/27 04:02:31;;;;;;;5.00;2.63;;;;;;;4.99;58.88;94946.31;4189371;28;20140;-66
2024/01/27 04:04:33;;;;;;;6.80;2.75;;;;;;;5.02;58.96;94950.44;4193067;28;20117;-67
2024/01/27 04:06:39;;;;;;;7.13;2.80;;;;;;;5.00;59.39;94950.56;4190292;28;20048;-67
2024/01/27 04:08:44;;;;;;;5.68;2.60;;;;;;;4.91;60.35;94933.09;4187227;28;20465;-66
2024/01/27 04:10:47;;;;;;;6.30;3.13;;;;;;;4.88;59.71;94939.34;4181748;28;20618;-67
2024/01/27 04:12:49;;;;;;;6.82;2.63;;;;;;;4.92;60.22;94940.75;4184531;28;20140;-66
2024/01/27 04:14:52;;;;;;;7.97;2.90;;;;;;;4.76;60.18;94952.44;4190938;28;20101;-65
2024/01/27 04:16:54;;;;;;;6.82;3.28;;;;;;;4.82;61.04;94936.38;4183355;28;20049;-66
2024/01/27 04:18:56;;;;;;;6.50;2.80;;;;;;;4.68;60.72;94940.06;4185226;28;20049;-66
2024/01/27 04:20:58;;;;;;;6.10;2.50;;;;;;;4.74;61.53;94936.16;4190445;28;20049;-66
2024/01/27 04:23:01;;;;;;;5.90;2.65;;;;;;;4.67;61.77;94928.03;4192275;28;20080;-66
2024/01/27 04:25:03;;;;;;;6.07;2.65;;;;;;;4.57;62.67;94942.66;4191073;28;20072;-66
2024/01/27 04:27:05;;;;;;;5.82;2.30;;;;;;;4.56;62.68;94943.56;4191892;28;20110;-67
2024/01/27 04:29:08;;;;;;;6.63;2.65;;;;;;;4.59;63.36;94938.16;4190751;28;20048;-66
2024/01/27 04:31:10;;;;;;;6.90;2.95;;;;;;;4.60;62.89;94945.00;4185134;28;20491;-65
2024/01/27 04:33:14;;;;;;;8.40;3.20;;;;;;;4.60;63.38;94930.25;4194950;28;20060;-64
2024/01/27 04:35:16;;;;;;;8.00;2.50;;;;;;;4.72;62.70;94929.31;4193683;28;20097;-66
2024/01/27 04:37:18;;;;;;;6.32;2.40;;;;;;;4.83;62.70;94945.84;4190204;28;20079;-66
2024/01/27 04:39:20;;;;;;;4.75;2.50;;;;;;;4.87;63.06;94942.06;4181510;28;20513;-66
2024/01/27 04:41:22;;;;;;;4.22;2.15;;;;;;;4.93;63.25;94946.78;4182565;28;20045;-67
2024/01/27 04:43:24;;;;;;;5.43;2.47;;;;;;;4.90;62.84;94945.25;4177286;28;20114;-65
2024/01/27 04:45:27;;;;;;;5.60;2.58;;;;;;;4.96;63.32;94937.94;4193458;28;20045;-67
2024/01/27 04:47:29;;;;;;;4.88;2.58;;;;;;;4.92;64.03;94940.75;4194433;28;20518;-66
2024/01/27 04:49:31;;;;;;;7.32;2.78;;;;;;;4.89;64.31;94933.22;4195332;28;20098;-67
2024/01/27 04:51:33;;;;;;;5.78;2.35;;;;;;;4.96;64.21;94941.34;4184182;28;20052;-66
2024/01/27 04:53:35;;;;;;;6.38;2.60;;;;;;;4.98;63.89;94941.22;4195186;28;20502;-66
2024/01/27 04:55:37;;;;;;;6.05;2.63;;;;;;;5.15;64.28;94939.94;4193418;28;20400;-66
2024/01/27 04:57:39;;;;;;;5.32;2.47;;;;;;;4.98;64.40;94938.63;4194703;28;20048;-65
2024/01/27 04:59:41;;;;;;;6.68;2.80;;;;;;;4.98;65.16;94956.81;4192661;28;20618;-67
2024/01/27 05:01:46;;;;;;;5.35;2.45;;;;;;;5.03;64.96;94944.28;4192465;28;20049;-68
2024/01/27 05:03:48;;;;;;;5.43;2.25;;;;;;;4.99;65.28;94959.31;4190644;28;20048;-67
2024/01/27 05:05:50;;;;;;;4.25;2.15;;;;;;;5.08;65.23;94950.78;4193794;28;20053;-67
2024/01/27 05:07:52;;;;;;;4.80;2.30;;;;;;;5.02;64.74;94961.66;4192436;28;20483;-67
2024/01/27 05:09:54;;;;;;;5.28;2.28;;;;;;;5.07;65.18;94961.28;4173859;28;20049;-67
2024/01/27 05:11:56;;;;;;;3.83;2.00;;;;;;;5.09;65.93;94962.00;4193774;28;20058;-67
2024/01/27 05:14:00;;;;;;;6.03;2.28;;;;;;;5.25;65.17;94959.88;4193843;28;20071;-65
2024/01/27 05:16:02;;;;;;;4.47;2.00;;;;;;;5.27;65.73;94965.75;4191568;28;20643;-66
2024/01/27 05:18:04;;;;;;;5.05;1.90;;;;;;;5.34;65.89;94964.31;4194986;28;20056;-68
2024/01/27 05:20:07;;;;;;;3.78;1.85;;;;;;;5.36;65.94;94963.41;4192721;28;20063;-65
2024/01/27 05:22:10;;;;;;;3.90;2.20;;;;;;;5.33;65.44;94957.50;4176203;28;20049;-68
2024/01/27 05:24:12;;;;;;;5.63;1.92;;;;;;;5.38;65.32;94970.13;4195252;28;20517;-69
2024/01/27 05:26:14;;;;;;;3.63;2.05;;;;;;;5.26;65.92;94968.47;4194225;28;20052;-67
2024/01/27 05:28:17;;;;;;;4.18;1.88;;;;;;;5.19;66.52;94968.13;4192416;28;20468;-66
2024/01/27 05:30:19;;;;;;;5.28;2.17;;;;;;;5.33;66.60;94961.84;4191933;28;20060;-65
2024/01/27 05:32:21;;;;;;;4.45;2.13;;;;;;;5.44;66.42;94961.00;4194076;28;20102;-65
2024/01/27 05:34:23;;;;;;;3.55;1.80;;;;;;;5.43;66.46;94959.34;4191024;28;20055;-66
2024/01/27 05:36:26;;;;;;;5.57;2.20;;;;;;;5.43;66.59;94957.56;4188832;28;20065;-69
2024/01/27 05:38:30;;;;;;;5.30;2.15;;;;;;;5.44;66.65;94961.00;4185575;28;20053;-67
2024/01/27 05:40:32;;;;;;;3.65;1.95;;;;;;;5.40;67.04;94962.19;4192881;28;20654;-67
2024/01/27 05:42:33;;;;;;;4.70;2.22;;;;;;;5.43;66.94;94967.97;4192009;28;20076;-66
2024/01/27 05:44:35;;;;;;;3.83;2.05;;;;;;;5.42;67.03;94970.69;4189119;28;20049;-67
2024/01/27 05:46:37;;;;;;;5.20;2.30;;;;;;;5.31;68.09;94977.56;4191654;28;20042;-65
2024/01/27 05:48:40;;;;;;;6.72;2.88;;;;;;;5.33;68.34;94969.63;4192749;28;20064;-66
2024/01/27 05:50:43;;;;;;;7.47;3.80;;;;;;;5.30;68.22;94975.91;4193660;28;20045;-68
2024/01/27 05:52:45;;;;;;;6.90;3.95;;;;;;;4.95;68.82;94977.81;4189667;28;20511;-67
2024/01/27 05:54:46;;;;;;;9.48;3.60;;;;;;;4.88;69.82;94975.69;4185540;28;20073;-66
2024/01/27 05:56:48;;;;;;;8.02;4.28;;;;;;;4.74;70.28;94988.91;4191380;28;20565;-66
2024/01/27 05:58:50;;;;;;;8.18;4.05;;;;;;;4.35;70.94;94997.91;4190276;28;20044;-66
2024/01/27 06:00:52;;;;;;;9.48;4.32;;;;;;;4.28;72.22;95005.28;4192462;28;20442;-68
2024/01/27 06:02:57;;;;;;;4.88;2.97;;;;;;;4.50;71.75;94987.22;4185620;28;20353;-69
2024/01/27 06:04:59;;;;;;;8.05;3.85;;;;;;;4.56;71.52;94982.50;4189685;28;20376;-68
2024/01/27 06:07:01;;;;;;;8.40;4.40;;;;;;;4.65;71.09;94990.41;4183991;28;20129;-67
2024/01/27 06:09:03;;;;;;;9.45;4.38;;;;;;;4.49;70.93;94995.91;4193623;28;20048;-66
2024/01/27 06:11:08;;;;;;;6.72;4.22;;;;;;;4.47;72.17;94992.63;4191110;28;20170;-68
2024/01/27 06:13:11;;;;;;;5.70;3.38;;;;;;;4.33;72.37;95004.97;4183258;28;20045;-67
2024/01/27 06:15:15;;;;;;;5.28;2.90;;;;;;;4.54;71.96;95002.53;4180851;28;20076;-66
2024/01/27 06:17:17;;;;;;;3.75;2.40;;;;;;;4.75;71.02;95013.91;4185770;28;20540;-67
2024/01/27 06:19:20;;;;;;;7.20;3.17;;;;;;;4.68;71.75;95000.56;4186283;28;20053;-65
2024/01/27 06:21:26;;;;;;;4.65;2.47;;;;;;;4.83;70.40;95006.34;4193170;28;20063;-67
2024/01/27 06:23:28;;;;;;;7.57;3.40;;;;;;;4.67;71.21;95013.66;4191623;28;20055;-66
2024/01/27 06:25:30;;;;;;;7.82;3.95;;;;;;;4.70;71.33;95009.06;4191574;28;20286;-67
2024/01/27 06:27:32;;;;;;;3.47;1.80;;;;;;;4.84;71.12;95014.97;4192465;28;20064;-69
2024/01/27 06:29:35;;;;;;;2.47;1.30;;;;;;;5.03;69.84;95014.41;4186105;28;20044;-68
2024/01/27 06:31:37;;;;;;;2.67;1.45;;;;;;;5.25;69.04;95014.41;4191900;28;20086;-67
2024/01/27 06:33:39;;;;;;;3.40;1.40;;;;;;;5.33;68.59;95037.19;4192807;28;20048;-66
2024/01/27 06:35:41;;;;;;;2.05;1.25;;;;;;;5.43;67.92;95045.09;4193484;28;20483;-66
2024/01/27 06:37:43;;;;;;;2.33;1.38;;;;;;;5.47;67.71;95036.94;4192825;28;20083;-66
2024/01/27 06:39:46;;;;;;;2.65;1.35;;;;;;;5.59;67.71;95042.13;4191444;28;20132;-67
2024/01/27 06:41:48;;;;;;;3.03;1.60;;;;;;;5.59;67.03;95042.94;4191459;28;20479;-67
2024/01/27 06:43:50;;;;;;;2.25;1.20;;;;;;;5.64;67.12;95047.81;4193886;28;20090;-69
2024/01/27 06:45:54;;;;;;;5.77;1.83;;;;;;;5.67;66.66;95050.16;4190040;28;20151;-67
2024/01/27 06:47:56;;;;;;;2.85;1.75;;;;;;;5.61;66.88;95043.66;4190980;28;20044;-67
2024/01/27 06:49:58;;;;;;;3.90;1.30;;;;;;;5.63;66.23;95054.75;4178851;28;20052;-68
2024/01/27 06:52:00;;;;;;;2.50;1.60;;;;;;;5.41;66.39;95055.59;4187645;28;20473;-65
2024/01/27 06:54:02;;;;;;;2.63;1.50;;;;;;;5.52;66.16;95072.97;4192190;28;21277;-69
2024/01/27 06:56:05;;;;;;;1.92;1.40;;;;;;;5.58;66.01;95062.09;4192348;28;20048;-67
2024/01/27 06:58:07;;;;;;;2.63;1.50;;;;;;;5.62;64.96;95088.69;4193951;28;20050;-66
2024/01/27 07:00:14;;;;;;;3.75;1.80;;;;;;;5.41;65.78;95080.78;4188679;28;20056;-68
2024/01/27 07:02:28;;;;;;;1.95;1.17;;;;;;;5.42;65.82;95062.47;4189514;28;20094;-69
2024/01/27 07:04:31;;;;;;;4.78;1.50;;;;;;;5.56;65.40;95058.78;4186139;28;20066;-66
2024/01/27 07:06:33;;;;;;;2.33;1.40;;;;;;;5.64;64.76;95064.22;4188695;28;20071;-68
2024/01/27 07:08:35;;;;;;;3.05;1.50;;;;;;;5.77;64.38;95053.69;4190116;28;20080;-65
2024/01/27 07:10:39;;;;;;;3.38;1.60;;;;;;;5.84;63.44;95043.63;4188292;28;20045;-69
2024/01/27 07:12:41;;;;;;;4.63;2.30;;;;;;;5.81;63.55;95049.06;4185249;28;20123;-66
2024/01/27 07:14:43;;;;;;;3.40;1.50;;;;;;;5.79;63.88;95063.97;4182776;28;20411;-67
2024/01/27 07:16:45;;;;;;;4.53;1.85;;;;;;;5.66;63.61;95062.31;4188509;28;20094;-68
2024/01/27 07:18:46;;;;;;;5.40;1.73;;;;;;;5.70;63.22;95049.91;4192424;28;20552;-67
2024/01/27 07:20:54;;;;;;;2.88;1.48;;;;;;;5.65;63.40;95062.44;4193640;28;20098;-67
2024/01/27 07:22:58;;;;;;;3.35;1.55;;;;;;;5.58;63.66;95072.50;4190509;28;20048;-67
2024/01/27 07:25:00;;;;;;;4.55;1.92;;;;;;;5.59;64.03;95076.72;4174369;28;20045;-67
2024/01/27 07:27:03;;;;;;;3.42;1.52;;;;;;;5.50;63.97;95090.44;4192231;28;20149;-69
2024/01/27 07:29:07;;;;;;;3.03;1.70;;;;;;;5.50;63.92;95077.44;4192097;28;20076;-68
2024/01/27 07:31:10;;;;;;;3.97;1.85;;;;;;;5.50;63.38;95083.47;4185709;28;20106;-68
2024/01/27 07:33:12;;;;;;;3.53;2.08;;;;;;;5.58;62.68;95103.69;4179045;28;20491;-67
2024/01/27 07:35:14;;;;;;;3.28;1.80;;;;;;;5.58;61.95;95095.88;4193320;28;20045;-66
2024/01/27 07:37:16;;;;;;;4.25;1.83;;;;;;;5.46;62.23;95143.59;4191976;28;20052;-67
2024/01/27 07:39:18;;;;;;;3.10;1.95;;;;;;;5.51;62.24;95133.69;4191651;28;20057;-65
2024/01/27 07:41:20;;;;;;;3.45;2.20;;;;;;;5.43;61.98;95152.44;4191759;28;20053;-68
2024/01/27 07:43:26;;;;;;;2.80;1.90;;;;;;;5.42;61.99;95158.59;4190612;28;20117;-68
2024/01/27 07:45:28;;;;;;;3.50;2.25;;;;;;;5.15;62.39;95195.25;4184853;28;20044;-68
2024/01/27 07:47:30;;;;;;;3.53;2.28;;;;;;;5.02;62.12;95178.94;4190729;28;20171;-69
2024/01/27 07:49:31;;;;;;;5.85;2.28;;;;;;;4.91;62.99;95161.56;4176351;28;20079;-67
2024/01/27 07:51:34;;;;;;;3.80;2.33;;;;;;;4.70;62.55;95174.34;4182826;28;20049;-67
2024/01/27 07:53:37;;;;;;;3.05;2.30;;;;;;;4.84;63.18;95153.41;4181348;28;20651;-68
2024/01/27 07:55:39;;;;;;;4.03;2.77;;;;;;;5.04;62.67;95156.28;4190667;28;20048;-66
2024/01/27 07:57:41;;;;;;;4.93;2.25;;;;;;;5.10;61.17;95180.03;4185762;28;20708;-69
2024/01/27 07:59:44;;;;;;;5.57;2.70;;;;;;;5.06;61.39;95159.59;4188735;28;20052;-67
2024/01/27 08:01:46;;;;;;;4.63;2.55;;;;;;;5.04;61.26;95167.50;4190883;28;20055;-68
2024/01/27 08:03:48;;;;;;;5.07;2.75;;;;;;;5.11;61.56;95194.66;4179465;28;20049;-67
2024/01/27 08:05:50;;;;;;;4.13;2.55;;;;;;;5.04;60.77;95182.25;4178607;28;20415;-67
2024/01/27 08:07:52;;;;;;;3.95;2.72;;;;;;;5.23;60.77;95189.50;4194692;28;20076;-69
2024/01/27 08:09:56;;;;;;;4.10;2.78;;;;;;;5.15;61.36;95190.06;4190263;28;20486;-68
2024/01/27 08:11:59;;;;;;;4.78;3.03;;;;;;;5.06;61.00;95193.34;4191374;28;20086;-68
2024/01/27 08:14:00;;;;;;;6.10;3.40;;;;;;;5.05;61.51;95189.91;4187773;28;20079;-68
2024/01/27 08:16:05;;;;;;;7.97;3.53;;;;;;;5.13;61.54;95191.94;4191070;28;20105;-67
2024/01/27 08:18:07;;;;;;;4.68;2.83;;;;;;;5.06;61.35;95185.56;4186719;28;20045;-67
2024/01/27 08:20:14;;;;;;;5.47;2.90;;;;;;;5.19;60.96;95156.91;4192883;28;20060;-67
2024/01/27 08:22:19;;;;;;;4.57;3.20;;;;;;;5.33;60.26;95152.34;4196078;28;20066;-66
2024/01/27 08:24:24;;;;;;;4.95;2.67;;;;;;;5.35;59.44;95160.00;4194360;28;20055;-67
2024/01/27 08:26:27;;;;;;;5.38;2.90;;;;;;;5.38;59.56;95179.72;4194598;28;20056;-68
2024/01/27 08:28:30;;;;;;;5.50;2.28;;;;;;;5.21;59.34;95178.41;4186792;28;20044;-69
2024/01/27 08:30:33;;;;;;;4.60;2.72;;;;;;;5.29;58.91;95158.69;4185662;28;20049;-66
2024/01/27 08:32:36;;;;;;;6.85;3.00;;;;;;;5.33;59.02;95175.72;4183148;28;20144;-68
2024/01/27 08:34:38;;;;;;;4.72;2.72;;;;;;;5.22;59.27;95162.69;4193612;28;20251;-69
2024/01/27 08:36:40;;;;;;;4.60;2.38;;;;;;;5.24;59.52;95166.00;4182771;28;20450;-68
2024/01/27 08:38:42;;;;;;;3.45;2.40;;;;;;;5.34;58.88;95174.75;4184807;28;20076;-69
2024/01/27 08:40:45;;;;;;;4.93;2.88;;;;;;;5.42;59.53;95189.78;4192324;28;20049;-67
2024/01/27 08:42:47;;;;;;;4.32;2.92;;;;;;;5.42;59.63;95181.13;4193064;28;20212;-68
2024/01/27 08:44:50;;;;;;;4.65;2.97;;;;;;;5.69;58.98;95168.66;4188495;28;20183;-68
2024/01/27 08:46:53;;;;;;;4.63;2.70;;;;;;;5.71;58.43;95142.53;4194131;28;20048;-70
2024/01/27 08:48:59;;;;;;;3.60;2.30;;;;;;;5.75;58.65;95212.38;4190520;28;20151;-69
2024/01/27 08:51:01;;;;;;;5.65;2.63;;;;;;;5.72;58.58;95184.03;4194576;28;20344;-70
2024/01/27 08:53:04;;;;;;;3.65;2.40;;;;;;;5.78;58.73;95197.50;4194389;28;20045;-69
2024/01/27 08:55:12;;;;;;;5.88;2.30;;;;;;;5.75;58.67;95178.59;4193940;28;20426;-70
2024/01/27 08:57:15;;;;;;;3.92;2.33;;;;;;;6.00;58.16;95161.13;4195102;28;20623;-67
2024/01/27 08:59:17;;;;;;;3.80;2.45;;;;;;;6.11;57.18;95160.28;4194818;28;20090;-69
2024/01/27 09:01:19;;;;;;;4.13;1.98;;;;;;;6.25;57.03;95157.41;4192843;28;20052;-68
2024/01/27 09:03:21;;;;;;;6.70;3.90;;;;;;;6.52;56.72;95159.59;4192657;28;20048;-68
2024/01/27 09:05:23;;;;;;;5.78;3.13;;;;;;;6.62;56.50;95164.06;4195555;28;20336;-67
2024/01/27 09:07:28;;;;;;;4.63;2.65;;;;;;;6.73;56.10;95158.81;4184723;28;20048;-70
2024/01/27 09:09:30;;;;;;;3.50;2.10;;;;;;;6.66;55.71;95152.44;4193126;28;20091;-68
2024/01/27 09:11:34;;;;;;;3.60;2.60;;;;;;;6.52;55.81;95182.22;4187647;28;20139;-68
2024/01/27 09:13:36;;;;;;;5.28;2.50;;;;;;;6.43;55.98;95165.56;4189832;28;20439;-68
2024/01/27 09:15:39;;;;;;;;;;;;;;;6.49;55.48;95166.81;4187295;28;20539;-68
2024/01/27 09:17:42;;;;;;;3.67;2.15;;;;;;;6.36;55.81;95166.97;4194219;28;19920;-67
2024/01/27 09:19:45;;;;;;;3.78;2.55;;;;;;;6.26;56.26;95171.22;4183572;28;20052;-68
2024/01/27 09:21:48;;;;;;;3.65;2.13;;;;;;;6.46;55.73;95159.28;4190038;28;20056;-69
2024/01/27 09:23:53;;;;;;;3.22;2.25;;;;;;;6.26;55.79;95212.88;4195082;28;20078;-68
2024/01/27 09:25:55;;;;;;;2.88;1.83;;;;;;;6.15;56.04;95172.94;4202807;28;20410;-65
2024/01/27 09:28:00;;;;;;;3.53;2.20;;;;;;;6.24;56.33;95167.94;4192859;28;20037;-68
2024/01/27 09:30:07;;;;;;;2.80;2.00;;;;;;;6.44;55.71;95159.38;4187862;28;20053;-68
2024/01/27 09:32:09;;;;;;;4.80;1.90;;;;;;;6.35;55.67;95170.53;4193194;28;20041;-67
2024/01/27 09:34:11;;;;;;;4.57;2.22;;;;;;;6.42;56.04;95135.25;4193983;28;20114;-68
2024/01/27 09:36:13;;;;;;;4.38;1.95;;;;;;;6.57;55.60;95136.63;4192517;28;20088;-70
2024/01/27 09:38:17;;;;;;;3.88;2.50;;;;;;;6.40;56.13;95141.53;4194990;28;20106;-67
2024/01/27 09:40:23;;;;;;;3.78;2.20;;;;;;;6.35;56.22;95136.69;4192957;28;20053;-69
2024/01/27 09:42:25;;;;;;;5.22;2.70;;;;;;;6.32;56.48;95144.72;4188926;28;20131;-68
2024/01/27 09:44:28;;;;;;;4.47;2.28;;;;;;;6.27;56.26;95152.09;4194029;28;20045;-68